Terminal Aerodrome Forecast
Issued by NWS Topeka, KS

Home | Current Version | Previous Version | Text Only | Print | Product List | Glossary On
Versions: 1 2 3 4 5 6 7 8 9 10 11 12 13 14 15 16 17
415
FTUS43 KTOP 172327
TAFTOP
TAF
KTOP 172327Z 1800/1824 17008KT P6SM SKC
     FM180600 17006KT P6SM SKC WS009/21033KT
     FM181400 19012G19KT P6SM FEW250=

USA.gov is the U.S. government's official web portal to all federal, state and local government web resources and services.